sensor_id;sensor_type;location;lat;lon;timestamp;temperature;humidity
20288;DHT22;10303;51.960;8.372;2023-12-22T00:00:30;7.50;99.90
20288;DHT22;10303;51.960;8.372;2023-12-22T00:02:56;7.60;99.90
20288;DHT22;10303;51.960;8.372;2023-12-22T00:05:22;7.40;99.90
20288;DHT22;10303;51.960;8.372;2023-12-22T00:07:47;7.30;99.90
20288;DHT22;10303;51.960;8.372;2023-12-22T00:10:13;7.30;99.90
20288;DHT22;10303;51.960;8.372;2023-12-22T00:12:39;7.20;99.90
20288;DHT22;10303;51.960;8.372;2023-12-22T00:15:06;7.10;99.90
20288;DHT22;10303;51.960;8.372;2023-12-22T00:17:33;7.00;99.90
20288;DHT22;10303;51.960;8.372;2023-12-22T00:19:58;7.30;99.90
20288;DHT22;10303;51.960;8.372;2023-12-22T00:22:28;7.00;99.90
20288;DHT22;10303;51.960;8.372;2023-12-22T00:24:56;6.90;99.90
20288;DHT22;10303;51.960;8.372;2023-12-22T00:27:21;7.00;99.90
20288;DHT22;10303;51.960;8.372;2023-12-22T00:29:47;6.90;99.90
20288;DHT22;10303;51.960;8.372;2023-12-22T00:32:13;7.10;99.90
20288;DHT22;10303;51.960;8.372;2023-12-22T00:34:39;6.90;99.90
20288;DHT22;10303;51.960;8.372;2023-12-22T00:37:05;6.80;99.90
20288;DHT22;10303;51.960;8.372;2023-12-22T00:39:31;6.80;99.90
20288;DHT22;10303;51.960;8.372;2023-12-22T00:41:57;6.80;99.90
20288;DHT22;10303;51.960;8.372;2023-12-22T00:44:23;6.80;99.90
20288;DHT22;10303;51.960;8.372;2023-12-22T00:46:49;6.90;99.90
20288;DHT22;10303;51.960;8.372;2023-12-22T00:49:15;6.70;99.90
20288;DHT22;10303;51.960;8.372;2023-12-22T00:51:40;6.80;99.90
20288;DHT22;10303;51.960;8.372;2023-12-22T00:54:06;6.90;99.90
20288;DHT22;10303;51.960;8.372;2023-12-22T00:56:32;6.90;99.90
20288;DHT22;10303;51.960;8.372;2023-12-22T00:58:58;6.90;99.90
20288;DHT22;10303;51.960;8.372;2023-12-22T01:01:24;6.80;99.90
20288;DHT22;10303;51.960;8.372;2023-12-22T01:03:50;6.90;99.90
20288;DHT22;10303;51.960;8.372;2023-12-22T01:06:15;6.80;99.90
20288;DHT22;10303;51.960;8.372;2023-12-22T01:08:41;6.80;99.90
20288;DHT22;10303;51.960;8.372;2023-12-22T01:11:07;7.10;99.90
20288;DHT22;10303;51.960;8.372;2023-12-22T01:13:33;6.80;99.90
20288;DHT22;10303;51.960;8.372;2023-12-22T01:15:59;7.00;99.90
20288;DHT22;10303;51.960;8.372;2023-12-22T01:18:25;6.60;99.90
20288;DHT22;10303;51.960;8.372;2023-12-22T01:20:54;6.70;99.90
20288;DHT22;10303;51.960;8.372;2023-12-22T01:23:20;6.60;99.90
20288;DHT22;10303;51.960;8.372;2023-12-22T01:25:46;6.80;99.90
20288;DHT22;10303;51.960;8.372;2023-12-22T01:28:12;6.70;99.90
20288;DHT22;10303;51.960;8.372;2023-12-22T01:30:38;6.80;99.90
20288;DHT22;10303;51.960;8.372;2023-12-22T01:33:03;6.80;99.90
20288;DHT22;10303;51.960;8.372;2023-12-22T01:35:29;6.50;99.90
20288;DHT22;10303;51.960;8.372;2023-12-22T01:37:55;6.50;99.90
20288;DHT22;10303;51.960;8.372;2023-12-22T01:40:22;6.20;99.90
20288;DHT22;10303;51.960;8.372;2023-12-22T01:42:48;6.20;99.90
20288;DHT22;10303;51.960;8.372;2023-12-22T01:45:14;6.10;99.90
20288;DHT22;10303;51.960;8.372;2023-12-22T01:47:40;5.90;99.90
20288;DHT22;10303;51.960;8.372;2023-12-22T01:50:09;5.70;99.90
20288;DHT22;10303;51.960;8.372;2023-12-22T01:52:37;6.00;99.90
20288;DHT22;10303;51.960;8.372;2023-12-22T01:55:06;5.60;99.90
20288;DHT22;10303;51.960;8.372;2023-12-22T01:57:36;5.60;99.90
20288;DHT22;10303;51.960;8.372;2023-12-22T02:00:02;5.70;99.90
20288;DHT22;10303;51.960;8.372;2023-12-22T02:02:37;5.50;99.90
20288;DHT22;10303;51.960;8.372;2023-12-22T02:05:05;5.60;99.90
20288;DHT22;10303;51.960;8.372;2023-12-22T02:07:34;5.60;99.90
20288;DHT22;10303;51.960;8.372;2023-12-22T02:10:01;5.60;99.90
20288;DHT22;10303;51.960;8.372;2023-12-22T02:12:27;5.80;99.90
20288;DHT22;10303;51.960;8.372;2023-12-22T02:14:52;5.90;99.90
20288;DHT22;10303;51.960;8.372;2023-12-22T02:17:25;5.70;99.90
20288;DHT22;10303;51.960;8.372;2023-12-22T02:20:12;5.80;99.90
20288;DHT22;10303;51.960;8.372;2023-12-22T02:22:38;5.90;99.90
20288;DHT22;10303;51.960;8.372;2023-12-22T02:25:04;6.10;99.90
20288;DHT22;10303;51.960;8.372;2023-12-22T02:30:09;5.70;99.90
20288;DHT22;10303;51.960;8.372;2023-12-22T02:32:46;5.60;99.90
20288;DHT22;10303;51.960;8.372;2023-12-22T02:35:16;5.90;99.90
20288;DHT22;10303;51.960;8.372;2023-12-22T02:37:46;5.80;99.90
20288;DHT22;10303;51.960;8.372;2023-12-22T02:40:14;5.90;99.90
20288;DHT22;10303;51.960;8.372;2023-12-22T02:42:41;5.90;99.90
20288;DHT22;10303;51.960;8.372;2023-12-22T02:45:14;5.90;99.90
20288;DHT22;10303;51.960;8.372;2023-12-22T02:47:41;5.70;99.90
20288;DHT22;10303;51.960;8.372;2023-12-22T02:50:08;6.10;99.90
20288;DHT22;10303;51.960;8.372;2023-12-22T02:52:35;5.90;99.90
20288;DHT22;10303;51.960;8.372;2023-12-22T02:55:01;6.00;99.90
20288;DHT22;10303;51.960;8.372;2023-12-22T02:57:28;6.10;99.90
20288;DHT22;10303;51.960;8.372;2023-12-22T02:59:54;6.20;99.90
20288;DHT22;10303;51.960;8.372;2023-12-22T03:02:19;6.40;99.90
20288;DHT22;10303;51.960;8.372;2023-12-22T03:04:45;6.60;99.90
20288;DHT22;10303;51.960;8.372;2023-12-22T03:07:14;6.80;99.90
20288;DHT22;10303;51.960;8.372;2023-12-22T03:09:41;6.90;99.90
20288;DHT22;10303;51.960;8.372;2023-12-22T03:12:08;6.70;99.90
20288;DHT22;10303;51.960;8.372;2023-12-22T03:14:35;6.80;99.90
20288;DHT22;10303;51.960;8.372;2023-12-22T03:17:06;6.90;99.90
20288;DHT22;10303;51.960;8.372;2023-12-22T03:19:33;6.90;99.90
20288;DHT22;10303;51.960;8.372;2023-12-22T03:22:00;6.70;99.90
20288;DHT22;10303;51.960;8.372;2023-12-22T03:24:26;6.50;99.90
20288;DHT22;10303;51.960;8.372;2023-12-22T03:26:54;6.60;99.90
20288;DHT22;10303;51.960;8.372;2023-12-22T03:29:21;6.50;99.90
20288;DHT22;10303;51.960;8.372;2023-12-22T03:31:47;6.50;99.90
20288;DHT22;10303;51.960;8.372;2023-12-22T03:34:13;6.50;99.90
20288;DHT22;10303;51.960;8.372;2023-12-22T03:36:39;6.40;99.90
20288;DHT22;10303;51.960;8.372;2023-12-22T03:39:05;6.30;99.90
20288;DHT22;10303;51.960;8.372;2023-12-22T03:41:31;6.20;99.90
20288;DHT22;10303;51.960;8.372;2023-12-22T03:43:57;6.40;99.90
20288;DHT22;10303;51.960;8.372;2023-12-22T03:46:24;6.40;99.90
20288;DHT22;10303;51.960;8.372;2023-12-22T03:48:50;6.40;99.90
20288;DHT22;10303;51.960;8.372;2023-12-22T03:51:17;6.60;99.90
20288;DHT22;10303;51.960;8.372;2023-12-22T03:53:43;6.60;99.90
20288;DHT22;10303;51.960;8.372;2023-12-22T03:56:08;6.60;99.90
20288;DHT22;10303;51.960;8.372;2023-12-22T03:58:35;6.70;99.90
20288;DHT22;10303;51.960;8.372;2023-12-22T04:01:02;6.70;99.90
20288;DHT22;10303;51.960;8.372;2023-12-22T04:03:28;6.60;99.90
20288;DHT22;10303;51.960;8.372;2023-12-22T04:05:54;6.80;99.90
20288;DHT22;10303;51.960;8.372;2023-12-22T04:08:20;6.70;99.90
20288;DHT22;10303;51.960;8.372;2023-12-22T04:10:46;6.70;99.90
20288;DHT22;10303;51.960;8.372;2023-12-22T04:13:13;6.50;99.90
20288;DHT22;10303;51.960;8.372;2023-12-22T04:15:39;6.30;99.90
20288;DHT22;10303;51.960;8.372;2023-12-22T04:18:05;6.20;99.90
20288;DHT22;10303;51.960;8.372;2023-12-22T04:20:31;6.20;99.90
20288;DHT22;10303;51.960;8.372;2023-12-22T04:22:58;6.10;99.90
20288;DHT22;10303;51.960;8.372;2023-12-22T04:25:23;6.10;99.90
20288;DHT22;10303;51.960;8.372;2023-12-22T04:27:51;6.20;99.90
20288;DHT22;10303;51.960;8.372;2023-12-22T04:30:17;6.30;99.90
20288;DHT22;10303;51.960;8.372;2023-12-22T04:32:43;6.10;99.90
20288;DHT22;10303;51.960;8.372;2023-12-22T04:35:09;6.10;99.90
20288;DHT22;10303;51.960;8.372;2023-12-22T04:37:35;6.00;99.90
20288;DHT22;10303;51.960;8.372;2023-12-22T04:40:01;6.00;99.90
20288;DHT22;10303;51.960;8.372;2023-12-22T04:42:28;5.90;99.90
20288;DHT22;10303;51.960;8.372;2023-12-22T04:44:54;6.00;99.90
20288;DHT22;10303;51.960;8.372;2023-12-22T04:47:20;6.10;99.90
20288;DHT22;10303;51.960;8.372;2023-12-22T04:49:46;6.00;99.90
20288;DHT22;10303;51.960;8.372;2023-12-22T04:52:12;5.80;99.90
20288;DHT22;10303;51.960;8.372;2023-12-22T04:54:38;6.10;99.90
20288;DHT22;10303;51.960;8.372;2023-12-22T04:57:04;6.00;99.90
20288;DHT22;10303;51.960;8.372;2023-12-22T04:59:30;6.00;99.90
20288;DHT22;10303;51.960;8.372;2023-12-22T05:01:56;5.90;99.90
20288;DHT22;10303;51.960;8.372;2023-12-22T05:04:22;5.80;99.90
20288;DHT22;10303;51.960;8.372;2023-12-22T05:06:49;5.80;99.90
20288;DHT22;10303;51.960;8.372;2023-12-22T05:09:16;5.80;99.90
20288;DHT22;10303;51.960;8.372;2023-12-22T05:11:42;5.80;99.90
20288;DHT22;10303;51.960;8.372;2023-12-22T05:14:09;5.60;99.90
20288;DHT22;10303;51.960;8.372;2023-12-22T05:16:35;5.70;99.90
20288;DHT22;10303;51.960;8.372;2023-12-22T05:19:01;5.50;99.90
20288;DHT22;10303;51.960;8.372;2023-12-22T05:21:27;5.70;99.90
20288;DHT22;10303;51.960;8.372;2023-12-22T05:23:53;5.50;99.90
20288;DHT22;10303;51.960;8.372;2023-12-22T05:26:20;5.80;99.90
20288;DHT22;10303;51.960;8.372;2023-12-22T05:28:47;5.50;99.90
20288;DHT22;10303;51.960;8.372;2023-12-22T05:31:16;5.40;99.90
20288;DHT22;10303;51.960;8.372;2023-12-22T05:33:42;5.40;99.90
20288;DHT22;10303;51.960;8.372;2023-12-22T05:36:09;5.40;99.90
20288;DHT22;10303;51.960;8.372;2023-12-22T05:38:38;5.40;99.90
20288;DHT22;10303;51.960;8.372;2023-12-22T05:41:05;5.70;99.90
20288;DHT22;10303;51.960;8.372;2023-12-22T05:43:32;5.60;99.90
20288;DHT22;10303;51.960;8.372;2023-12-22T05:46:01;5.50;99.90
20288;DHT22;10303;51.960;8.372;2023-12-22T05:48:27;5.70;99.90
20288;DHT22;10303;51.960;8.372;2023-12-22T05:50:57;5.60;99.90
20288;DHT22;10303;51.960;8.372;2023-12-22T05:53:27;5.80;99.90
20288;DHT22;10303;51.960;8.372;2023-12-22T05:55:53;5.80;99.90
20288;DHT22;10303;51.960;8.372;2023-12-22T05:58:19;5.80;99.90
20288;DHT22;10303;51.960;8.372;2023-12-22T06:00:45;6.30;99.90
20288;DHT22;10303;51.960;8.372;2023-12-22T06:03:11;5.70;99.90
20288;DHT22;10303;51.960;8.372;2023-12-22T06:05:37;5.70;99.90
20288;DHT22;10303;51.960;8.372;2023-12-22T06:08:04;5.80;99.90
20288;DHT22;10303;51.960;8.372;2023-12-22T06:10:30;5.80;99.90
20288;DHT22;10303;51.960;8.372;2023-12-22T06:12:56;5.90;99.90
20288;DHT22;10303;51.960;8.372;2023-12-22T06:15:23;5.90;99.90
20288;DHT22;10303;51.960;8.372;2023-12-22T06:17:49;6.10;99.90
20288;DHT22;10303;51.960;8.372;2023-12-22T06:20:16;5.90;99.90
20288;DHT22;10303;51.960;8.372;2023-12-22T06:22:41;5.90;99.90
20288;DHT22;10303;51.960;8.372;2023-12-22T06:25:08;6.00;99.90
20288;DHT22;10303;51.960;8.372;2023-12-22T06:27:35;6.00;99.90
20288;DHT22;10303;51.960;8.372;2023-12-22T06:30:04;6.10;99.90
20288;DHT22;10303;51.960;8.372;2023-12-22T06:32:31;6.20;99.90
20288;DHT22;10303;51.960;8.372;2023-12-22T06:34:58;6.30;99.90
20288;DHT22;10303;51.960;8.372;2023-12-22T06:37:26;6.20;99.90
20288;DHT22;10303;51.960;8.372;2023-12-22T06:39:52;6.20;99.90
20288;DHT22;10303;51.960;8.372;2023-12-22T06:42:18;6.20;99.90
20288;DHT22;10303;51.960;8.372;2023-12-22T06:44:44;6.40;99.90
20288;DHT22;10303;51.960;8.372;2023-12-22T06:47:10;6.20;99.90
20288;DHT22;10303;51.960;8.372;2023-12-22T06:49:35;6.20;99.90
20288;DHT22;10303;51.960;8.372;2023-12-22T06:52:01;6.20;99.90
20288;DHT22;10303;51.960;8.372;2023-12-22T06:54:27;6.30;99.90
20288;DHT22;10303;51.960;8.372;2023-12-22T06:56:54;6.30;99.90
20288;DHT22;10303;51.960;8.372;2023-12-22T06:59:20;6.30;99.90
20288;DHT22;10303;51.960;8.372;2023-12-22T07:01:46;6.50;99.90
20288;DHT22;10303;51.960;8.372;2023-12-22T07:04:12;6.40;99.90
20288;DHT22;10303;51.960;8.372;2023-12-22T07:06:39;6.40;99.90
20288;DHT22;10303;51.960;8.372;2023-12-22T07:11:40;6.40;99.90
20288;DHT22;10303;51.960;8.372;2023-12-22T07:14:07;6.40;99.90
20288;DHT22;10303;51.960;8.372;2023-12-22T07:16:36;6.70;99.90
20288;DHT22;10303;51.960;8.372;2023-12-22T07:19:04;6.50;99.90
20288;DHT22;10303;51.960;8.372;2023-12-22T07:21:31;6.50;99.90
20288;DHT22;10303;51.960;8.372;2023-12-22T07:23:57;6.70;99.90
20288;DHT22;10303;51.960;8.372;2023-12-22T07:26:26;6.40;99.90
20288;DHT22;10303;51.960;8.372;2023-12-22T07:28:53;6.50;99.90
20288;DHT22;10303;51.960;8.372;2023-12-22T07:31:19;6.50;99.90
20288;DHT22;10303;51.960;8.372;2023-12-22T07:33:45;6.70;99.90
20288;DHT22;10303;51.960;8.372;2023-12-22T07:36:11;6.60;99.90
20288;DHT22;10303;51.960;8.372;2023-12-22T07:38:38;6.90;99.90
20288;DHT22;10303;51.960;8.372;2023-12-22T07:41:07;6.50;99.90
20288;DHT22;10303;51.960;8.372;2023-12-22T07:43:33;6.60;99.90
20288;DHT22;10303;51.960;8.372;2023-12-22T07:45:59;6.60;99.90
20288;DHT22;10303;51.960;8.372;2023-12-22T07:48:25;6.60;99.90
20288;DHT22;10303;51.960;8.372;2023-12-22T07:50:50;6.50;99.90
20288;DHT22;10303;51.960;8.372;2023-12-22T07:53:16;6.50;99.90
20288;DHT22;10303;51.960;8.372;2023-12-22T07:55:46;6.70;99.90
20288;DHT22;10303;51.960;8.372;2023-12-22T07:58:12;6.60;99.90
20288;DHT22;10303;51.960;8.372;2023-12-22T08:00:39;6.70;99.90
20288;DHT22;10303;51.960;8.372;2023-12-22T08:03:05;6.80;99.90
20288;DHT22;10303;51.960;8.372;2023-12-22T08:05:31;6.80;99.90
20288;DHT22;10303;51.960;8.372;2023-12-22T08:07:57;6.80;99.90
20288;DHT22;10303;51.960;8.372;2023-12-22T08:10:23;6.70;99.90
20288;DHT22;10303;51.960;8.372;2023-12-22T08:12:49;6.80;99.90
20288;DHT22;10303;51.960;8.372;2023-12-22T08:15:14;6.80;99.90
20288;DHT22;10303;51.960;8.372;2023-12-22T08:17:48;6.80;99.90
20288;DHT22;10303;51.960;8.372;2023-12-22T08:20:19;6.90;99.90
20288;DHT22;10303;51.960;8.372;2023-12-22T08:22:47;6.90;99.90
20288;DHT22;10303;51.960;8.372;2023-12-22T08:25:14;6.90;99.90
20288;DHT22;10303;51.960;8.372;2023-12-22T08:27:41;7.00;99.90
20288;DHT22;10303;51.960;8.372;2023-12-22T08:30:09;6.90;99.90
20288;DHT22;10303;51.960;8.372;2023-12-22T08:32:35;7.00;99.90
20288;DHT22;10303;51.960;8.372;2023-12-22T08:35:02;7.10;99.90
20288;DHT22;10303;51.960;8.372;2023-12-22T08:37:30;7.00;99.90
20288;DHT22;10303;51.960;8.372;2023-12-22T08:39:56;7.10;99.90
20288;DHT22;10303;51.960;8.372;2023-12-22T08:42:23;7.10;99.90
20288;DHT22;10303;51.960;8.372;2023-12-22T08:44:50;7.10;99.90
20288;DHT22;10303;51.960;8.372;2023-12-22T08:47:16;7.10;99.90
20288;DHT22;10303;51.960;8.372;2023-12-22T08:49:42;7.00;99.90
20288;DHT22;10303;51.960;8.372;2023-12-22T08:52:08;6.90;99.90
20288;DHT22;10303;51.960;8.372;2023-12-22T08:54:34;7.10;99.90
20288;DHT22;10303;51.960;8.372;2023-12-22T08:57:02;6.90;99.90
20288;DHT22;10303;51.960;8.372;2023-12-22T08:59:28;6.80;99.90
20288;DHT22;10303;51.960;8.372;2023-12-22T09:01:54;6.90;99.90
20288;DHT22;10303;51.960;8.372;2023-12-22T09:04:20;6.90;99.90
20288;DHT22;10303;51.960;8.372;2023-12-22T09:06:50;7.00;99.90
20288;DHT22;10303;51.960;8.372;2023-12-22T09:09:16;6.80;99.90
20288;DHT22;10303;51.960;8.372;2023-12-22T09:11:43;6.70;99.90
20288;DHT22;10303;51.960;8.372;2023-12-22T09:14:10;6.80;99.90
20288;DHT22;10303;51.960;8.372;2023-12-22T09:16:37;6.70;99.90
20288;DHT22;10303;51.960;8.372;2023-12-22T09:19:04;6.70;99.90
20288;DHT22;10303;51.960;8.372;2023-12-22T09:21:30;6.70;99.90
20288;DHT22;10303;51.960;8.372;2023-12-22T09:23:56;6.80;99.90
20288;DHT22;10303;51.960;8.372;2023-12-22T09:26:22;7.00;99.90
20288;DHT22;10303;51.960;8.372;2023-12-22T09:28:48;7.10;99.90
20288;DHT22;10303;51.960;8.372;2023-12-22T09:31:13;6.90;99.90
20288;DHT22;10303;51.960;8.372;2023-12-22T09:33:40;6.80;99.90
20288;DHT22;10303;51.960;8.372;2023-12-22T09:36:08;6.90;99.90
20288;DHT22;10303;51.960;8.372;2023-12-22T09:38:34;6.90;99.90
20288;DHT22;10303;51.960;8.372;2023-12-22T09:41:01;7.20;99.90
20288;DHT22;10303;51.960;8.372;2023-12-22T09:43:27;6.70;99.90
20288;DHT22;10303;51.960;8.372;2023-12-22T09:45:54;7.10;99.90
20288;DHT22;10303;51.960;8.372;2023-12-22T09:48:21;6.90;99.90
20288;DHT22;10303;51.960;8.372;2023-12-22T09:50:54;7.00;99.90
20288;DHT22;10303;51.960;8.372;2023-12-22T09:53:24;7.00;99.90
20288;DHT22;10303;51.960;8.372;2023-12-22T09:55:53;7.00;99.90
20288;DHT22;10303;51.960;8.372;2023-12-22T09:58:19;7.00;99.90
20288;DHT22;10303;51.960;8.372;2023-12-22T10:00:48;7.10;99.90
20288;DHT22;10303;51.960;8.372;2023-12-22T10:03:16;7.10;99.90
20288;DHT22;10303;51.960;8.372;2023-12-22T10:05:44;7.00;99.90
20288;DHT22;10303;51.960;8.372;2023-12-22T10:08:10;7.00;99.90
20288;DHT22;10303;51.960;8.372;2023-12-22T10:10:39;7.00;99.90
20288;DHT22;10303;51.960;8.372;2023-12-22T10:13:11;7.00;99.90
20288;DHT22;10303;51.960;8.372;2023-12-22T10:15:39;6.90;99.90
20288;DHT22;10303;51.960;8.372;2023-12-22T10:18:09;7.10;99.90
20288;DHT22;10303;51.960;8.372;2023-12-22T10:20:36;7.00;99.90
20288;DHT22;10303;51.960;8.372;2023-12-22T10:23:02;7.10;99.90
20288;DHT22;10303;51.960;8.372;2023-12-22T10:25:29;7.00;99.90
20288;DHT22;10303;51.960;8.372;2023-12-22T10:27:55;7.10;99.90
20288;DHT22;10303;51.960;8.372;2023-12-22T10:30:22;7.20;99.90
20288;DHT22;10303;51.960;8.372;2023-12-22T10:32:53;7.20;99.90
20288;DHT22;10303;51.960;8.372;2023-12-22T10:35:22;7.20;99.90
20288;DHT22;10303;51.960;8.372;2023-12-22T10:37:49;7.30;99.90
20288;DHT22;10303;51.960;8.372;2023-12-22T10:40:19;7.40;99.90
20288;DHT22;10303;51.960;8.372;2023-12-22T10:42:45;7.10;99.90
20288;DHT22;10303;51.960;8.372;2023-12-22T10:45:11;7.10;99.90
20288;DHT22;10303;51.960;8.372;2023-12-22T10:47:38;7.20;99.90
20288;DHT22;10303;51.960;8.372;2023-12-22T10:50:05;7.10;99.90
20288;DHT22;10303;51.960;8.372;2023-12-22T10:52:32;7.00;99.90
20288;DHT22;10303;51.960;8.372;2023-12-22T10:54:58;7.00;99.90
20288;DHT22;10303;51.960;8.372;2023-12-22T10:57:26;7.00;99.90
20288;DHT22;10303;51.960;8.372;2023-12-22T10:59:56;7.00;99.90
20288;DHT22;10303;51.960;8.372;2023-12-22T11:02:27;6.90;99.90
20288;DHT22;10303;51.960;8.372;2023-12-22T11:07:36;7.20;99.90
20288;DHT22;10303;51.960;8.372;2023-12-22T11:10:07;6.90;99.90
20288;DHT22;10303;51.960;8.372;2023-12-22T11:12:35;6.80;99.90
20288;DHT22;10303;51.960;8.372;2023-12-22T11:15:03;6.90;99.90
20288;DHT22;10303;51.960;8.372;2023-12-22T11:17:32;6.90;99.90
20288;DHT22;10303;51.960;8.372;2023-12-22T11:19:59;6.90;99.90
20288;DHT22;10303;51.960;8.372;2023-12-22T11:22:26;6.90;99.90
20288;DHT22;10303;51.960;8.372;2023-12-22T11:24:54;7.00;99.90
20288;DHT22;10303;51.960;8.372;2023-12-22T11:27:23;7.10;99.90
20288;DHT22;10303;51.960;8.372;2023-12-22T11:29:52;7.10;99.90
20288;DHT22;10303;51.960;8.372;2023-12-22T11:32:19;7.20;99.90
20288;DHT22;10303;51.960;8.372;2023-12-22T11:34:46;7.30;99.90
20288;DHT22;10303;51.960;8.372;2023-12-22T11:37:14;7.50;99.90
20288;DHT22;10303;51.960;8.372;2023-12-22T11:39:41;7.50;99.90
20288;DHT22;10303;51.960;8.372;2023-12-22T11:42:17;7.60;99.90
20288;DHT22;10303;51.960;8.372;2023-12-22T11:44:45;7.50;99.90
20288;DHT22;10303;51.960;8.372;2023-12-22T11:47:11;7.40;99.90
20288;DHT22;10303;51.960;8.372;2023-12-22T11:49:40;7.50;99.90
20288;DHT22;10303;51.960;8.372;2023-12-22T11:52:14;7.50;99.90
20288;DHT22;10303;51.960;8.372;2023-12-22T11:54:51;7.30;99.90
20288;DHT22;10303;51.960;8.372;2023-12-22T11:59:58;7.40;99.90
20288;DHT22;10303;51.960;8.372;2023-12-22T12:02:39;7.30;99.90
20288;DHT22;10303;51.960;8.372;2023-12-22T12:05:09;7.50;99.90
20288;DHT22;10303;51.960;8.372;2023-12-22T12:07:43;7.40;99.90
20288;DHT22;10303;51.960;8.372;2023-12-22T12:10:12;7.50;99.90
20288;DHT22;10303;51.960;8.372;2023-12-22T12:13:09;7.50;99.90
20288;DHT22;10303;51.960;8.372;2023-12-22T12:15:36;7.40;99.90
20288;DHT22;10303;51.960;8.372;2023-12-22T12:18:03;7.30;99.90
20288;DHT22;10303;51.960;8.372;2023-12-22T12:20:32;7.40;99.90
20288;DHT22;10303;51.960;8.372;2023-12-22T12:22:58;7.50;99.90
20288;DHT22;10303;51.960;8.372;2023-12-22T12:25:32;7.40;99.90
20288;DHT22;10303;51.960;8.372;2023-12-22T12:28:05;7.50;99.90
20288;DHT22;10303;51.960;8.372;2023-12-22T12:30:34;7.60;99.90
20288;DHT22;10303;51.960;8.372;2023-12-22T12:33:12;7.50;99.90
20288;DHT22;10303;51.960;8.372;2023-12-22T12:35:39;7.50;99.90
20288;DHT22;10303;51.960;8.372;2023-12-22T12:38:06;7.40;99.90
20288;DHT22;10303;51.960;8.372;2023-12-22T12:40:33;7.50;99.90
20288;DHT22;10303;51.960;8.372;2023-12-22T12:43:05;7.30;99.90
20288;DHT22;10303;51.960;8.372;2023-12-22T12:45:31;7.30;99.90
20288;DHT22;10303;51.960;8.372;2023-12-22T12:48:01;7.30;99.90
20288;DHT22;10303;51.960;8.372;2023-12-22T12:50:29;7.30;99.90
20288;DHT22;10303;51.960;8.372;2023-12-22T12:52:57;7.50;99.90
20288;DHT22;10303;51.960;8.372;2023-12-22T12:55:24;7.40;99.90
20288;DHT22;10303;51.960;8.372;2023-12-22T12:57:54;7.30;99.90
20288;DHT22;10303;51.960;8.372;2023-12-22T13:00:28;7.40;99.90
20288;DHT22;10303;51.960;8.372;2023-12-22T13:03:02;7.40;99.90
20288;DHT22;10303;51.960;8.372;2023-12-22T13:05:30;7.40;99.90
20288;DHT22;10303;51.960;8.372;2023-12-22T13:08:13;7.50;99.90
20288;DHT22;10303;51.960;8.372;2023-12-22T13:10:40;7.60;99.90
20288;DHT22;10303;51.960;8.372;2023-12-22T13:13:07;7.40;99.90
20288;DHT22;10303;51.960;8.372;2023-12-22T13:15:33;7.40;99.90
20288;DHT22;10303;51.960;8.372;2023-12-22T13:17:59;7.70;99.90
20288;DHT22;10303;51.960;8.372;2023-12-22T13:20:26;7.30;99.90
20288;DHT22;10303;51.960;8.372;2023-12-22T13:22:53;7.40;99.90
20288;DHT22;10303;51.960;8.372;2023-12-22T13:25:18;7.20;99.90
20288;DHT22;10303;51.960;8.372;2023-12-22T13:27:47;7.30;99.90
20288;DHT22;10303;51.960;8.372;2023-12-22T13:30:35;7.30;99.90
20288;DHT22;10303;51.960;8.372;2023-12-22T13:33:02;7.30;99.90
20288;DHT22;10303;51.960;8.372;2023-12-22T13:35:29;7.20;99.90
20288;DHT22;10303;51.960;8.372;2023-12-22T13:37:55;7.10;99.90
20288;DHT22;10303;51.960;8.372;2023-12-22T13:40:22;7.30;99.90
20288;DHT22;10303;51.960;8.372;2023-12-22T13:42:56;7.20;99.90
20288;DHT22;10303;51.960;8.372;2023-12-22T13:45:26;7.30;99.90
20288;DHT22;10303;51.960;8.372;2023-12-22T13:47:52;7.10;99.90
20288;DHT22;10303;51.960;8.372;2023-12-22T13:50:19;7.30;99.90
20288;DHT22;10303;51.960;8.372;2023-12-22T13:52:49;7.10;99.90
20288;DHT22;10303;51.960;8.372;2023-12-22T13:55:20;7.20;99.90
20288;DHT22;10303;51.960;8.372;2023-12-22T13:57:48;7.20;99.90
20288;DHT22;10303;51.960;8.372;2023-12-22T14:02:47;7.00;99.90
20288;DHT22;10303;51.960;8.372;2023-12-22T14:05:18;7.00;99.90
20288;DHT22;10303;51.960;8.372;2023-12-22T14:07:45;6.80;99.90
20288;DHT22;10303;51.960;8.372;2023-12-22T14:10:12;6.90;99.90
20288;DHT22;10303;51.960;8.372;2023-12-22T14:12:39;6.80;99.90
20288;DHT22;10303;51.960;8.372;2023-12-22T14:15:07;6.90;99.90
20288;DHT22;10303;51.960;8.372;2023-12-22T14:17:55;6.80;99.90
20288;DHT22;10303;51.960;8.372;2023-12-22T14:20:21;6.90;99.90
20288;DHT22;10303;51.960;8.372;2023-12-22T14:22:47;6.90;99.90
20288;DHT22;10303;51.960;8.372;2023-12-22T14:25:13;6.90;99.90
20288;DHT22;10303;51.960;8.372;2023-12-22T14:27:39;7.10;99.90
20288;DHT22;10303;51.960;8.372;2023-12-22T14:30:05;6.90;99.90
20288;DHT22;10303;51.960;8.372;2023-12-22T14:32:31;6.80;99.90
20288;DHT22;10303;51.960;8.372;2023-12-22T14:34:57;7.00;99.90
20288;DHT22;10303;51.960;8.372;2023-12-22T14:37:23;6.90;99.90
20288;DHT22;10303;51.960;8.372;2023-12-22T14:39:49;6.80;99.90
20288;DHT22;10303;51.960;8.372;2023-12-22T14:42:15;6.90;99.90
20288;DHT22;10303;51.960;8.372;2023-12-22T14:44:41;6.90;99.90
20288;DHT22;10303;51.960;8.372;2023-12-22T14:47:07;6.80;99.90
20288;DHT22;10303;51.960;8.372;2023-12-22T14:49:33;6.90;99.90
20288;DHT22;10303;51.960;8.372;2023-12-22T14:51:59;6.90;99.90
20288;DHT22;10303;51.960;8.372;2023-12-22T14:54:25;7.00;99.90
20288;DHT22;10303;51.960;8.372;2023-12-22T14:56:51;7.00;99.90
20288;DHT22;10303;51.960;8.372;2023-12-22T14:59:18;6.90;99.90
20288;DHT22;10303;51.960;8.372;2023-12-22T15:01:44;7.00;99.90
20288;DHT22;10303;51.960;8.372;2023-12-22T15:04:10;6.90;99.90
20288;DHT22;10303;51.960;8.372;2023-12-22T15:06:40;7.00;99.90
20288;DHT22;10303;51.960;8.372;2023-12-22T15:09:09;7.10;99.90
20288;DHT22;10303;51.960;8.372;2023-12-22T15:11:42;7.30;99.90
20288;DHT22;10303;51.960;8.372;2023-12-22T15:14:09;7.10;99.90
20288;DHT22;10303;51.960;8.372;2023-12-22T15:16:42;7.00;99.90
20288;DHT22;10303;51.960;8.372;2023-12-22T15:19:12;7.10;99.90
20288;DHT22;10303;51.960;8.372;2023-12-22T15:21:40;7.00;99.90
20288;DHT22;10303;51.960;8.372;2023-12-22T15:24:07;7.00;99.90
20288;DHT22;10303;51.960;8.372;2023-12-22T15:26:33;7.00;99.90
20288;DHT22;10303;51.960;8.372;2023-12-22T15:29:00;7.10;99.90
20288;DHT22;10303;51.960;8.372;2023-12-22T15:31:26;7.20;99.90
20288;DHT22;10303;51.960;8.372;2023-12-22T15:33:54;7.30;99.90
20288;DHT22;10303;51.960;8.372;2023-12-22T15:36:21;7.20;99.90
20288;DHT22;10303;51.960;8.372;2023-12-22T15:38:48;7.30;99.90
20288;DHT22;10303;51.960;8.372;2023-12-22T15:41:14;7.50;99.90
20288;DHT22;10303;51.960;8.372;2023-12-22T15:43:41;7.20;99.90
20288;DHT22;10303;51.960;8.372;2023-12-22T15:46:08;7.20;99.90
20288;DHT22;10303;51.960;8.372;2023-12-22T15:48:35;7.30;99.90
20288;DHT22;10303;51.960;8.372;2023-12-22T15:51:10;7.30;99.90
20288;DHT22;10303;51.960;8.372;2023-12-22T15:53:38;7.20;99.90
20288;DHT22;10303;51.960;8.372;2023-12-22T15:56:05;7.30;99.90
20288;DHT22;10303;51.960;8.372;2023-12-22T15:58:35;7.30;99.90